sensor_id;sensor_type;location;lat;lon;timestamp;pressure;altitude;pressure_sealevel;temperature;humidity
62374;BME280;48409;49.030;1.820;2022-12-07T00:01:17;101414.59;;;3.18;62.46
62374;BME280;48409;49.030;1.820;2022-12-07T00:03:44;101407.63;;;3.20;62.48
62374;BME280;48409;49.030;1.820;2022-12-07T00:06:11;101411.94;;;3.21;62.69
62374;BME280;48409;49.030;1.820;2022-12-07T00:08:37;101411.06;;;3.23;62.41
62374;BME280;48409;49.030;1.820;2022-12-07T00:11:28;101411.06;;;3.25;62.60
62374;BME280;48409;49.030;1.820;2022-12-07T00:13:54;101388.50;;;3.25;62.62
62374;BME280;48409;49.030;1.820;2022-12-07T00:16:26;101395.44;;;3.28;62.64
62374;BME280;48409;49.030;1.820;2022-12-07T00:18:51;101393.72;;;3.29;62.65
62374;BME280;48409;49.030;1.820;2022-12-07T00:21:26;101386.75;;;3.29;62.52
62374;BME280;48409;49.030;1.820;2022-12-07T00:23:56;101390.22;;;3.28;62.60
62374;BME280;48409;49.030;1.820;2022-12-07T00:26:24;101384.13;;;3.28;62.66
62374;BME280;48409;49.030;1.820;2022-12-07T00:29:04;101382.41;;;3.30;62.52
62374;BME280;48409;49.030;1.820;2022-12-07T00:31:32;101379.81;;;3.31;62.58
62374;BME280;48409;49.030;1.820;2022-12-07T00:34:00;101375.44;;;3.32;62.54
62374;BME280;48409;49.030;1.820;2022-12-07T00:36:26;101368.50;;;3.32;62.83
62374;BME280;48409;49.030;1.820;2022-12-07T00:38:52;101365.03;;;3.33;62.89
62374;BME280;48409;49.030;1.820;2022-12-07T00:41:22;101367.63;;;3.33;62.52
62374;BME280;48409;49.030;1.820;2022-12-07T00:43:49;101365.91;;;3.35;62.73
62374;BME280;48409;49.030;1.820;2022-12-07T00:46:15;101355.47;;;3.35;62.49
62374;BME280;48409;49.030;1.820;2022-12-07T00:48:41;101356.31;;;3.36;62.86
62374;BME280;48409;49.030;1.820;2022-12-07T00:51:11;101361.53;;;3.37;62.82
62374;BME280;48409;49.030;1.820;2022-12-07T00:53:38;101358.03;;;3.38;62.85
62374;BME280;48409;49.030;1.820;2022-12-07T00:56:20;101363.25;;;3.40;62.97
62374;BME280;48409;49.030;1.820;2022-12-07T00:58:53;101360.63;;;3.42;62.64
62374;BME280;48409;49.030;1.820;2022-12-07T01:01:20;101362.38;;;3.43;62.59
62374;BME280;48409;49.030;1.820;2022-12-07T01:03:45;101352.81;;;3.43;62.85
62374;BME280;48409;49.030;1.820;2022-12-07T01:06:14;101349.34;;;3.44;62.91
62374;BME280;48409;49.030;1.820;2022-12-07T01:08:43;101351.94;;;3.46;62.89
62374;BME280;48409;49.030;1.820;2022-12-07T01:11:13;101351.94;;;3.46;62.93
62374;BME280;48409;49.030;1.820;2022-12-07T01:13:39;101344.97;;;3.48;62.93
62374;BME280;48409;49.030;1.820;2022-12-07T01:16:10;101339.75;;;3.48;62.85
62374;BME280;48409;49.030;1.820;2022-12-07T01:18:36;101343.22;;;3.50;62.69
62374;BME280;48409;49.030;1.820;2022-12-07T01:21:03;101337.13;;;3.51;62.73
62374;BME280;48409;49.030;1.820;2022-12-07T01:23:30;101341.47;;;3.52;62.81
62374;BME280;48409;49.030;1.820;2022-12-07T01:25:57;101334.53;;;3.54;63.02
62374;BME280;48409;49.030;1.820;2022-12-07T01:28:23;101337.13;;;3.54;62.90
62374;BME280;48409;49.030;1.820;2022-12-07T01:31:01;101335.38;;;3.56;62.83
62374;BME280;48409;49.030;1.820;2022-12-07T01:33:30;101329.31;;;3.57;62.84
62374;BME280;48409;49.030;1.820;2022-12-07T01:36:01;101333.63;;;3.58;62.80
62374;BME280;48409;49.030;1.820;2022-12-07T01:38:28;101330.16;;;3.59;62.97
62374;BME280;48409;49.030;1.820;2022-12-07T01:40:54;101324.94;;;3.59;63.04
62374;BME280;48409;49.030;1.820;2022-12-07T01:43:22;101330.16;;;3.61;62.87
62374;BME280;48409;49.030;1.820;2022-12-07T01:45:48;101330.97;;;3.61;62.91
62374;BME280;48409;49.030;1.820;2022-12-07T01:48:16;101337.06;;;3.65;63.00
62374;BME280;48409;49.030;1.820;2022-12-07T01:50:50;101331.84;;;3.65;63.04
62374;BME280;48409;49.030;1.820;2022-12-07T01:53:17;101326.63;;;3.65;62.80
62374;BME280;48409;49.030;1.820;2022-12-07T01:55:46;101327.47;;;3.65;62.87
62374;BME280;48409;49.030;1.820;2022-12-07T01:58:13;101325.75;;;3.68;62.82
62374;BME280;48409;49.030;1.820;2022-12-07T02:00:40;101329.19;;;3.70;62.69
62374;BME280;48409;49.030;1.820;2022-12-07T02:03:11;101324.00;;;3.70;62.72
62374;BME280;48409;49.030;1.820;2022-12-07T02:05:40;101329.19;;;3.70;62.83
62374;BME280;48409;49.030;1.820;2022-12-07T02:08:07;101330.94;;;3.71;62.79
62374;BME280;48409;49.030;1.820;2022-12-07T02:10:32;101327.47;;;3.72;62.88
62374;BME280;48409;49.030;1.820;2022-12-07T02:13:19;101319.66;;;3.72;62.79
62374;BME280;48409;49.030;1.820;2022-12-07T02:21:33;101335.28;;;3.73;62.96
62374;BME280;48409;49.030;1.820;2022-12-07T02:29:26;101334.41;;;3.73;62.96
62374;BME280;48409;49.030;1.820;2022-12-07T02:32:16;101325.75;;;3.71;63.01
62374;BME280;48409;49.030;1.820;2022-12-07T02:34:51;101323.09;;;3.72;62.78
62374;BME280;48409;49.030;1.820;2022-12-07T02:39:59;101326.59;;;3.70;62.61
62374;BME280;48409;49.030;1.820;2022-12-07T02:42:38;101324.88;;;3.70;62.71
62374;BME280;48409;49.030;1.820;2022-12-07T02:45:05;101323.13;;;3.69;62.67
62374;BME280;48409;49.030;1.820;2022-12-07T02:47:33;101322.25;;;3.69;62.98
62374;BME280;48409;49.030;1.820;2022-12-07T02:50:05;101330.94;;;3.71;62.66
62374;BME280;48409;49.030;1.820;2022-12-07T02:52:31;101324.00;;;3.70;62.77
62374;BME280;48409;49.030;1.820;2022-12-07T02:54:56;101324.00;;;3.70;62.83
62374;BME280;48409;49.030;1.820;2022-12-07T02:57:41;101330.94;;;3.71;62.87
62374;BME280;48409;49.030;1.820;2022-12-07T03:00:15;101330.06;;;3.70;62.80
62374;BME280;48409;49.030;1.820;2022-12-07T03:02:53;101329.19;;;3.70;62.72
62374;BME280;48409;49.030;1.820;2022-12-07T03:05:46;101332.69;;;3.69;62.60
62374;BME280;48409;49.030;1.820;2022-12-07T03:11:17;101324.03;;;3.67;62.56
62374;BME280;48409;49.030;1.820;2022-12-07T03:16:31;101322.28;;;3.65;62.73
62374;BME280;48409;49.030;1.820;2022-12-07T03:19:02;101316.22;;;3.65;62.65
62374;BME280;48409;49.030;1.820;2022-12-07T03:21:36;101312.72;;;3.64;62.74
62374;BME280;48409;49.030;1.820;2022-12-07T03:24:06;101306.69;;;3.62;62.65
62374;BME280;48409;49.030;1.820;2022-12-07T03:26:36;101298.88;;;3.62;62.97
62374;BME280;48409;49.030;1.820;2022-12-07T03:29:21;101300.59;;;3.63;62.94
62374;BME280;48409;49.030;1.820;2022-12-07T03:31:55;101299.72;;;3.64;63.03
62374;BME280;48409;49.030;1.820;2022-12-07T03:34:38;101305.81;;;3.63;62.85
62374;BME280;48409;49.030;1.820;2022-12-07T03:37:23;101297.09;;;3.64;62.92
62374;BME280;48409;49.030;1.820;2022-12-07T03:40:16;101308.41;;;3.67;62.86
62374;BME280;48409;49.030;1.820;2022-12-07T03:42:43;101299.69;;;3.68;62.57
62374;BME280;48409;49.030;1.820;2022-12-07T03:45:09;101301.44;;;3.65;62.85
62374;BME280;48409;49.030;1.820;2022-12-07T03:47:46;101293.59;;;3.67;62.73
62374;BME280;48409;49.030;1.820;2022-12-07T03:50:42;101299.69;;;3.68;63.02
62374;BME280;48409;49.030;1.820;2022-12-07T03:53:15;101297.09;;;3.69;62.94
62374;BME280;48409;49.030;1.820;2022-12-07T03:55:44;101301.41;;;3.70;62.69
62374;BME280;48409;49.030;1.820;2022-12-07T03:58:14;101295.31;;;3.70;63.06
62374;BME280;48409;49.030;1.820;2022-12-07T04:00:42;101284.03;;;3.71;62.97
62374;BME280;48409;49.030;1.820;2022-12-07T04:03:09;101289.25;;;3.71;62.79
62374;BME280;48409;49.030;1.820;2022-12-07T04:05:34;101290.97;;;3.72;62.72
62374;BME280;48409;49.030;1.820;2022-12-07T04:08:00;101300.53;;;3.73;62.78
62374;BME280;48409;49.030;1.820;2022-12-07T04:10:25;101289.22;;;3.72;62.96
62374;BME280;48409;49.030;1.820;2022-12-07T04:12:50;101297.91;;;3.73;62.74
62374;BME280;48409;49.030;1.820;2022-12-07T04:15:16;101290.09;;;3.73;62.88
62374;BME280;48409;49.030;1.820;2022-12-07T04:17:42;101294.41;;;3.74;62.74
62374;BME280;48409;49.030;1.820;2022-12-07T04:20:08;101289.22;;;3.74;62.85
62374;BME280;48409;49.030;1.820;2022-12-07T04:22:33;101292.69;;;3.73;62.95
62374;BME280;48409;49.030;1.820;2022-12-07T04:24:59;101292.69;;;3.73;62.97
62374;BME280;48409;49.030;1.820;2022-12-07T04:27:24;101287.50;;;3.73;62.71
62374;BME280;48409;49.030;1.820;2022-12-07T04:29:49;101295.31;;;3.73;62.67
62374;BME280;48409;49.030;1.820;2022-12-07T04:32:15;101297.03;;;3.72;62.81
62374;BME280;48409;49.030;1.820;2022-12-07T04:34:40;101290.97;;;3.72;62.83
62374;BME280;48409;49.030;1.820;2022-12-07T04:37:05;101289.25;;;3.71;62.80
62374;BME280;48409;49.030;1.820;2022-12-07T04:39:32;101295.31;;;3.70;62.83
62374;BME280;48409;49.030;1.820;2022-12-07T04:41:58;101297.09;;;3.69;62.72
62374;BME280;48409;49.030;1.820;2022-12-07T04:44:25;101291.00;;;3.69;62.98
62374;BME280;48409;49.030;1.820;2022-12-07T04:46:51;101280.56;;;3.69;62.94
62374;BME280;48409;49.030;1.820;2022-12-07T04:49:17;101287.50;;;3.70;62.80
62374;BME280;48409;49.030;1.820;2022-12-07T04:51:44;101280.56;;;3.69;62.75
62374;BME280;48409;49.030;1.820;2022-12-07T04:54:09;101286.66;;;3.69;62.84
62374;BME280;48409;49.030;1.820;2022-12-07T04:56:35;101275.34;;;3.69;63.00
62374;BME280;48409;49.030;1.820;2022-12-07T04:59:01;101277.97;;;3.69;62.93
62374;BME280;48409;49.030;1.820;2022-12-07T05:01:27;101271.88;;;3.70;62.98
62374;BME280;48409;49.030;1.820;2022-12-07T05:03:53;101276.25;;;3.69;62.89
62374;BME280;48409;49.030;1.820;2022-12-07T05:06:18;101277.09;;;3.70;62.83
62374;BME280;48409;49.030;1.820;2022-12-07T05:08:43;101275.34;;;3.69;62.82
62374;BME280;48409;49.030;1.820;2022-12-07T05:11:10;101268.41;;;3.71;63.08
62374;BME280;48409;49.030;1.820;2022-12-07T05:13:56;101276.19;;;3.72;62.87
62374;BME280;48409;49.030;1.820;2022-12-07T05:16:22;101273.63;;;3.71;62.91
62374;BME280;48409;49.030;1.820;2022-12-07T05:18:47;101278.78;;;3.72;62.95
62374;BME280;48409;49.030;1.820;2022-12-07T05:21:13;101280.56;;;3.72;62.90
62374;BME280;48409;49.030;1.820;2022-12-07T05:23:38;101281.41;;;3.72;62.72
62374;BME280;48409;49.030;1.820;2022-12-07T05:26:03;101276.19;;;3.72;63.07
62374;BME280;48409;49.030;1.820;2022-12-07T05:28:29;101286.63;;;3.72;62.78
62374;BME280;48409;49.030;1.820;2022-12-07T05:30:54;101282.28;;;3.73;62.89
62374;BME280;48409;49.030;1.820;2022-12-07T05:33:19;101287.50;;;3.73;62.72
62374;BME280;48409;49.030;1.820;2022-12-07T05:35:45;101292.69;;;3.73;62.87
62374;BME280;48409;49.030;1.820;2022-12-07T05:38:10;101284.00;;;3.74;62.97
62374;BME280;48409;49.030;1.820;2022-12-07T05:40:36;101284.00;;;3.74;63.00
62374;BME280;48409;49.030;1.820;2022-12-07T05:43:02;101280.50;;;3.75;63.05
62374;BME280;48409;49.030;1.820;2022-12-07T05:45:27;101276.19;;;3.74;62.93
62374;BME280;48409;49.030;1.820;2022-12-07T05:47:52;101276.16;;;3.75;62.97
62374;BME280;48409;49.030;1.820;2022-12-07T05:50:18;101271.84;;;3.76;62.98
62374;BME280;48409;49.030;1.820;2022-12-07T05:52:43;101269.22;;;3.76;62.96
62374;BME280;48409;49.030;1.820;2022-12-07T05:55:08;101266.63;;;3.76;62.99
62374;BME280;48409;49.030;1.820;2022-12-07T05:57:34;101264.88;;;3.76;63.02
62374;BME280;48409;49.030;1.820;2022-12-07T05:59:59;101264.84;;;3.78;63.06
62374;BME280;48409;49.030;1.820;2022-12-07T06:02:24;101260.53;;;3.77;62.72
62374;BME280;48409;49.030;1.820;2022-12-07T06:04:50;101259.66;;;3.78;63.13
62374;BME280;48409;49.030;1.820;2022-12-07T06:07:16;101252.72;;;3.77;62.81
62374;BME280;48409;49.030;1.820;2022-12-07T06:09:42;101263.13;;;3.77;62.88
62374;BME280;48409;49.030;1.820;2022-12-07T06:12:13;101262.25;;;3.78;62.93
62374;BME280;48409;49.030;1.820;2022-12-07T06:14:57;101265.72;;;3.78;63.10
62374;BME280;48409;49.030;1.820;2022-12-07T06:17:23;101268.34;;;3.80;62.89
62374;BME280;48409;49.030;1.820;2022-12-07T06:19:48;101261.38;;;3.79;63.13
62374;BME280;48409;49.030;1.820;2022-12-07T06:22:14;101265.72;;;3.78;63.08
62374;BME280;48409;49.030;1.820;2022-12-07T06:24:41;101273.53;;;3.80;63.08
62374;BME280;48409;49.030;1.820;2022-12-07T06:27:07;101265.72;;;3.80;62.90
62374;BME280;48409;49.030;1.820;2022-12-07T06:29:32;101264.84;;;3.81;62.86
62374;BME280;48409;49.030;1.820;2022-12-07T06:31:58;101268.34;;;3.80;62.87
62374;BME280;48409;49.030;1.820;2022-12-07T06:34:24;101273.53;;;3.80;63.16
62374;BME280;48409;49.030;1.820;2022-12-07T06:36:50;101274.38;;;3.81;62.96
62374;BME280;48409;49.030;1.820;2022-12-07T06:39:21;101278.75;;;3.80;62.93
62374;BME280;48409;49.030;1.820;2022-12-07T06:41:47;101281.38;;;3.80;62.87
62374;BME280;48409;49.030;1.820;2022-12-07T06:44:12;101282.22;;;3.79;62.81
62374;BME280;48409;49.030;1.820;2022-12-07T06:46:38;101282.22;;;3.79;62.84
62374;BME280;48409;49.030;1.820;2022-12-07T06:49:04;101288.31;;;3.79;62.96
62374;BME280;48409;49.030;1.820;2022-12-07T06:51:31;101289.19;;;3.80;62.88
62374;BME280;48409;49.030;1.820;2022-12-07T06:53:57;101291.78;;;3.78;63.02
62374;BME280;48409;49.030;1.820;2022-12-07T06:56:22;101285.72;;;3.78;63.00
62374;BME280;48409;49.030;1.820;2022-12-07T06:58:48;101286.59;;;3.77;62.98
62374;BME280;48409;49.030;1.820;2022-12-07T07:01:15;101285.72;;;3.78;62.97
62374;BME280;48409;49.030;1.820;2022-12-07T07:03:41;101288.31;;;3.78;62.91
62374;BME280;48409;49.030;1.820;2022-12-07T07:06:07;101281.38;;;3.77;63.01
62374;BME280;48409;49.030;1.820;2022-12-07T07:08:34;101288.31;;;3.78;62.73
62374;BME280;48409;49.030;1.820;2022-12-07T07:11:00;101290.91;;;3.78;62.85
62374;BME280;48409;49.030;1.820;2022-12-07T07:13:26;101293.50;;;3.79;62.84
62374;BME280;48409;49.030;1.820;2022-12-07T07:15:52;101287.44;;;3.79;63.04
62374;BME280;48409;49.030;1.820;2022-12-07T07:18:18;101294.41;;;3.80;63.04
62374;BME280;48409;49.030;1.820;2022-12-07T07:20:43;101294.41;;;3.80;62.78
62374;BME280;48409;49.030;1.820;2022-12-07T07:23:09;101288.31;;;3.79;62.98
62374;BME280;48409;49.030;1.820;2022-12-07T07:25:34;101289.19;;;3.80;62.78
62374;BME280;48409;49.030;1.820;2022-12-07T07:28:00;101302.22;;;3.80;63.13
62374;BME280;48409;49.030;1.820;2022-12-07T07:30:29;101304.81;;;3.80;63.04
62374;BME280;48409;49.030;1.820;2022-12-07T07:33:01;101304.81;;;3.80;62.94
62374;BME280;48409;49.030;1.820;2022-12-07T07:35:28;101312.63;;;3.82;62.77
62374;BME280;48409;49.030;1.820;2022-12-07T07:37:54;101310.88;;;3.81;63.02
62374;BME280;48409;49.030;1.820;2022-12-07T07:40:19;101315.25;;;3.80;62.94
62374;BME280;48409;49.030;1.820;2022-12-07T07:42:49;101311.75;;;3.81;63.14
62374;BME280;48409;49.030;1.820;2022-12-07T07:45:15;101310.88;;;3.82;62.99
62374;BME280;48409;49.030;1.820;2022-12-07T07:47:40;101310.03;;;3.82;62.98
62374;BME280;48409;49.030;1.820;2022-12-07T07:50:06;101308.25;;;3.82;62.92
62374;BME280;48409;49.030;1.820;2022-12-07T07:52:31;101309.97;;;3.83;63.16
62374;BME280;48409;49.030;1.820;2022-12-07T07:54:57;101315.19;;;3.83;63.10
62374;BME280;48409;49.030;1.820;2022-12-07T07:57:22;101308.25;;;3.82;62.99
62374;BME280;48409;49.030;1.820;2022-12-07T07:59:48;101303.91;;;3.84;63.05
62374;BME280;48409;49.030;1.820;2022-12-07T08:02:16;101311.75;;;3.84;63.22
62374;BME280;48409;49.030;1.820;2022-12-07T08:04:42;101307.38;;;3.85;63.04
62374;BME280;48409;49.030;1.820;2022-12-07T08:07:09;101297.81;;;3.85;62.98
62374;BME280;48409;49.030;1.820;2022-12-07T08:09:35;101303.03;;;3.85;62.95
62374;BME280;48409;49.030;1.820;2022-12-07T08:12:00;101292.59;;;3.85;62.97
62374;BME280;48409;49.030;1.820;2022-12-07T08:14:25;101297.81;;;3.85;62.93
62374;BME280;48409;49.030;1.820;2022-12-07T08:16:52;101303.03;;;3.87;62.87
62374;BME280;48409;49.030;1.820;2022-12-07T08:19:18;101299.53;;;3.86;63.06
62374;BME280;48409;49.030;1.820;2022-12-07T08:21:43;101303.03;;;3.85;63.06
62374;BME280;48409;49.030;1.820;2022-12-07T08:24:08;101310.84;;;3.87;62.95
62374;BME280;48409;49.030;1.820;2022-12-07T08:26:34;101299.53;;;3.86;63.09
62374;BME280;48409;49.030;1.820;2022-12-07T08:28:59;101314.28;;;3.87;62.90
62374;BME280;48409;49.030;1.820;2022-12-07T08:31:25;101310.84;;;3.87;63.06
62374;BME280;48409;49.030;1.820;2022-12-07T08:33:53;101314.28;;;3.87;63.00
62374;BME280;48409;49.030;1.820;2022-12-07T08:36:19;101317.78;;;3.88;62.97
62374;BME280;48409;49.030;1.820;2022-12-07T08:38:44;101318.66;;;3.88;63.14
62374;BME280;48409;49.030;1.820;2022-12-07T08:41:10;101320.38;;;3.89;62.95
62374;BME280;48409;49.030;1.820;2022-12-07T08:43:36;101315.16;;;3.89;63.14
62374;BME280;48409;49.030;1.820;2022-12-07T08:48:44;101321.22;;;3.93;63.02
62374;BME280;48409;49.030;1.820;2022-12-07T08:51:10;101313.38;;;3.95;63.14
62374;BME280;48409;49.030;1.820;2022-12-07T08:53:37;101318.59;;;3.95;63.25
62374;BME280;48409;49.030;1.820;2022-12-07T08:56:03;101311.59;;;3.97;63.32
62374;BME280;48409;49.030;1.820;2022-12-07T08:58:29;101315.97;;;3.98;63.17
62374;BME280;48409;49.030;1.820;2022-12-07T09:00:55;101318.53;;;4.01;63.12
62374;BME280;48409;49.030;1.820;2022-12-07T09:03:20;101320.28;;;4.02;63.16
62374;BME280;48409;49.030;1.820;2022-12-07T09:05:46;101315.91;;;4.04;63.09
62374;BME280;48409;49.030;1.820;2022-12-07T09:08:11;101319.38;;;4.04;63.25
62374;BME280;48409;49.030;1.820;2022-12-07T09:10:37;101311.56;;;4.06;63.38
62374;BME280;48409;49.030;1.820;2022-12-07T09:13:02;101312.41;;;4.08;63.21
62374;BME280;48409;49.030;1.820;2022-12-07T09:15:29;101320.19;;;4.11;63.14
62374;BME280;48409;49.030;1.820;2022-12-07T09:17:54;101321.91;;;4.12;63.28
62374;BME280;48409;49.030;1.820;2022-12-07T09:20:20;101311.47;;;4.14;63.57
62374;BME280;48409;49.030;1.820;2022-12-07T09:22:45;101313.19;;;4.16;63.29
62374;BME280;48409;49.030;1.820;2022-12-07T09:25:11;101321.00;;;4.18;63.36
62374;BME280;48409;49.030;1.820;2022-12-07T09:27:36;101320.13;;;4.21;63.52
62374;BME280;48409;49.030;1.820;2022-12-07T09:30:03;101318.34;;;4.23;63.28
62374;BME280;48409;49.030;1.820;2022-12-07T09:32:29;101320.94;;;4.24;63.48
62374;BME280;48409;49.030;1.820;2022-12-07T09:34:54;101313.09;;;4.26;63.60
62374;BME280;48409;49.030;1.820;2022-12-07T09:37:20;101311.31;;;4.28;63.24
62374;BME280;48409;49.030;1.820;2022-12-07T09:39:45;101316.53;;;4.29;63.69
62374;BME280;48409;49.030;1.820;2022-12-07T09:42:26;101313.03;;;4.32;63.73
62374;BME280;48409;49.030;1.820;2022-12-07T09:44:52;101309.56;;;4.33;63.46
62374;BME280;48409;49.030;1.820;2022-12-07T09:47:18;101316.47;;;4.37;63.55
62374;BME280;48409;49.030;1.820;2022-12-07T09:49:43;101316.44;;;4.40;63.57
62374;BME280;48409;49.030;1.820;2022-12-07T09:54:36;101304.25;;;4.41;63.47
62374;BME280;48409;49.030;1.820;2022-12-07T09:57:05;101317.25;;;4.46;63.55
62374;BME280;48409;49.030;1.820;2022-12-07T09:59:30;101314.59;;;4.49;63.76
62374;BME280;48409;49.030;1.820;2022-12-07T10:02:23;101311.09;;;4.50;63.57
62374;BME280;48409;49.030;1.820;2022-12-07T10:04:50;101304.16;;;4.52;63.76
62374;BME280;48409;49.030;1.820;2022-12-07T10:07:15;101302.38;;;4.54;63.82
62374;BME280;48409;49.030;1.820;2022-12-07T10:09:40;101301.47;;;4.56;64.01
62374;BME280;48409;49.030;1.820;2022-12-07T10:12:09;101300.56;;;4.59;63.64
62374;BME280;48409;49.030;1.820;2022-12-07T10:14:37;101304.03;;;4.61;63.70
62374;BME280;48409;49.030;1.820;2022-12-07T10:17:05;101302.25;;;4.63;63.80
62374;BME280;48409;49.030;1.820;2022-12-07T10:19:51;101299.63;;;4.66;63.96
62374;BME280;48409;49.030;1.820;2022-12-07T10:22:17;101299.63;;;4.68;63.81
62374;BME280;48409;49.030;1.820;2022-12-07T10:24:45;101294.38;;;4.69;63.89
62374;BME280;48409;49.030;1.820;2022-12-07T10:27:29;101295.22;;;4.72;63.73
62374;BME280;48409;49.030;1.820;2022-12-07T10:29:57;101289.97;;;4.75;63.88
62374;BME280;48409;49.030;1.820;2022-12-07T10:34:51;101294.28;;;4.79;63.88
62374;BME280;48409;49.030;1.820;2022-12-07T10:37:40;101282.03;;;4.81;63.82
62374;BME280;48409;49.030;1.820;2022-12-07T10:40:24;101283.75;;;4.83;63.97
62374;BME280;48409;49.030;1.820;2022-12-07T10:54:12;101252.34;;;4.93;63.95
62374;BME280;48409;49.030;1.820;2022-12-07T10:56:54;101240.97;;;4.95;64.02
62374;BME280;48409;49.030;1.820;2022-12-07T11:02:37;101240.88;;;5.02;63.94
62374;BME280;48409;49.030;1.820;2022-12-07T11:10:57;101226.88;;;5.09;64.14
62374;BME280;48409;49.030;1.820;2022-12-07T11:21:45;101208.44;;;5.20;64.30
62374;BME280;48409;49.030;1.820;2022-12-07T11:24:19;101200.56;;;5.21;64.35
62374;BME280;48409;49.030;1.820;2022-12-07T11:27:23;101206.59;;;5.27;64.43
62374;BME280;48409;49.030;1.820;2022-12-07T11:30:06;101203.06;;;5.29;64.09
62374;BME280;48409;49.030;1.820;2022-12-07T11:38:31;101174.19;;;5.37;64.32
62374;BME280;48409;49.030;1.820;2022-12-07T11:41:03;101182.81;;;5.42;64.32
62374;BME280;48409;49.030;1.820;2022-12-07T11:51:44;101174.88;;;5.48;63.97
62374;BME280;48409;49.030;1.820;2022-12-07T11:54:25;101175.69;;;5.51;64.03
62374;BME280;48409;49.030;1.820;2022-12-07T11:56:54;101172.19;;;5.52;64.12
62374;BME280;48409;49.030;1.820;2022-12-07T11:59:45;101161.75;;;5.52;64.09
62374;BME280;48409;49.030;1.820;2022-12-07T12:02:27;101170.44;;;5.54;63.90
62374;BME280;48409;49.030;1.820;2022-12-07T12:05:03;101165.22;;;5.54;63.78
62374;BME280;48409;49.030;1.820;2022-12-07T12:07:31;101166.03;;;5.56;64.00
62374;BME280;48409;49.030;1.820;2022-12-07T12:10:05;101160.81;;;5.56;63.91
62374;BME280;48409;49.030;1.820;2022-12-07T12:21:09;101158.88;;;5.67;64.10
62374;BME280;48409;49.030;1.820;2022-12-07T12:23:41;101150.09;;;5.70;64.08
62374;BME280;48409;49.030;1.820;2022-12-07T12:26:16;101142.16;;;5.74;64.26
62374;BME280;48409;49.030;1.820;2022-12-07T12:31:14;101147.25;;;5.84;64.48
62374;BME280;48409;49.030;1.820;2022-12-07T12:46:56;101121.59;;;6.05;64.21
62374;BME280;48409;49.030;1.820;2022-12-07T12:57:32;101111.78;;;6.16;63.98
62374;BME280;48409;49.030;1.820;2022-12-07T12:59:59;101111.72;;;6.19;64.18
62374;BME280;48409;49.030;1.820;2022-12-07T13:02:29;101112.56;;;6.20;64.08
62374;BME280;48409;49.030;1.820;2022-12-07T13:15:40;101091.59;;;6.21;64.03
62374;BME280;48409;49.030;1.820;2022-12-07T13:18:34;101094.22;;;6.21;64.21
62374;BME280;48409;49.030;1.820;2022-12-07T13:23:55;101093.34;;;6.21;63.79
62374;BME280;48409;49.030;1.820;2022-12-07T13:26:23;101095.13;;;6.20;63.91
62374;BME280;48409;49.030;1.820;2022-12-07T13:31:41;101088.97;;;6.21;63.93
62374;BME280;48409;49.030;1.820;2022-12-07T13:34:37;101085.56;;;6.19;63.98
62374;BME280;48409;49.030;1.820;2022-12-07T13:37:25;101083.81;;;6.18;63.90
62374;BME280;48409;49.030;1.820;2022-12-07T13:42:29;101083.81;;;6.18;63.90
62374;BME280;48409;49.030;1.820;2022-12-07T13:44:55;101067.28;;;6.18;63.70
62374;BME280;48409;49.030;1.820;2022-12-07T13:47:48;101069.03;;;6.17;63.93
62374;BME280;48409;49.030;1.820;2022-12-07T13:50:40;101068.13;;;6.18;64.04
62374;BME280;48409;49.030;1.820;2022-12-07T13:53:12;101065.53;;;6.17;63.93
62374;BME280;48409;49.030;1.820;2022-12-07T13:55:44;101061.16;;;6.17;63.84
62374;BME280;48409;49.030;1.820;2022-12-07T13:58:10;101062.06;;;6.16;63.78
62374;BME280;48409;49.030;1.820;2022-12-07T14:00:35;101055.94;;;6.17;63.97
62374;BME280;48409;49.030;1.820;2022-12-07T14:03:03;101058.56;;;6.17;63.92
62374;BME280;48409;49.030;1.820;2022-12-07T14:05:34;101055.94;;;6.17;64.03
62374;BME280;48409;49.030;1.820;2022-12-07T14:08:20;101043.75;;;6.16;63.71
62374;BME280;48409;49.030;1.820;2022-12-07T14:13:34;101038.53;;;6.16;63.96
62374;BME280;48409;49.030;1.820;2022-12-07T14:16:02;101033.28;;;6.16;63.94
62374;BME280;48409;49.030;1.820;2022-12-07T14:18:38;101030.72;;;6.14;63.93
62374;BME280;48409;49.030;1.820;2022-12-07T14:23:36;101030.75;;;6.13;63.81
62374;BME280;48409;49.030;1.820;2022-12-07T14:28:38;101020.28;;;6.13;63.75
62374;BME280;48409;49.030;1.820;2022-12-07T14:31:24;101031.63;;;6.12;63.94
62374;BME280;48409;49.030;1.820;2022-12-07T14:33:50;101026.41;;;6.12;63.88
62374;BME280;48409;49.030;1.820;2022-12-07T14:36:15;101024.66;;;6.12;63.86
62374;BME280;48409;49.030;1.820;2022-12-07T14:38:41;101028.19;;;6.10;64.00
62374;BME280;48409;49.030;1.820;2022-12-07T14:41:14;101028.19;;;6.10;63.67
62374;BME280;48409;49.030;1.820;2022-12-07T14:43:59;101022.94;;;6.10;63.73
62374;BME280;48409;49.030;1.820;2022-12-07T14:46:25;101029.06;;;6.10;63.67
62374;BME280;48409;49.030;1.820;2022-12-07T14:48:50;101027.34;;;6.09;63.68
62374;BME280;48409;49.030;1.820;2022-12-07T14:51:15;101031.69;;;6.09;63.54
62374;BME280;48409;49.030;1.820;2022-12-07T14:53:50;101019.53;;;6.08;63.67
62374;BME280;48409;49.030;1.820;2022-12-07T14:56:16;101023.03;;;6.07;63.85
62374;BME280;48409;49.030;1.820;2022-12-07T14:58:42;101023.03;;;6.07;63.66
62374;BME280;48409;49.030;1.820;2022-12-07T15:01:08;101029.13;;;6.07;63.88
62374;BME280;48409;49.030;1.820;2022-12-07T15:03:33;101023.03;;;6.07;63.67
62374;BME280;48409;49.030;1.820;2022-12-07T15:06:00;101018.66;;;6.07;63.68
62374;BME280;48409;49.030;1.820;2022-12-07T15:08:26;101019.59;;;6.05;63.63
62374;BME280;48409;49.030;1.820;2022-12-07T15:10:51;101020.44;;;6.05;63.61
62374;BME280;48409;49.030;1.820;2022-12-07T15:13:17;101012.63;;;6.02;63.79
62374;BME280;48409;49.030;1.820;2022-12-07T15:16:01;101018.75;;;6.03;63.59
62374;BME280;48409;49.030;1.820;2022-12-07T15:18:26;101012.66;;;6.00;63.64
62374;BME280;48409;49.030;1.820;2022-12-07T15:20:51;101008.34;;;5.99;63.67